createdAt,value
2023-04-23T00:00:07.360Z,43.32
2023-04-23T00:02:09.737Z,43.03
2023-04-23T00:04:12.839Z,43.76
2023-04-23T00:06:15.295Z,43.38
2023-04-23T00:08:18.685Z,43.18
2023-04-23T00:10:20.701Z,43.54
2023-04-23T00:12:22.851Z,43.66
2023-04-23T00:14:26.254Z,43.70
2023-04-23T00:16:28.332Z,43.74
2023-04-23T00:18:29.930Z,43.54
2023-04-23T00:20:31.503Z,43.69
2023-04-23T00:22:33.150Z,43.94
2023-04-23T00:24:34.737Z,43.92
2023-04-23T00:26:36.273Z,43.87
2023-04-23T00:28:37.931Z,43.80
2023-04-23T00:30:40.836Z,44.26
2023-04-23T00:32:42.387Z,44.13
2023-04-23T00:34:44.288Z,44.28
2023-04-23T00:36:45.899Z,43.72
2023-04-23T00:38:47.440Z,43.81
2023-04-23T00:40:48.999Z,44.09
2023-04-23T00:42:51.914Z,44.48
2023-04-23T00:44:53.739Z,44.78
2023-04-23T00:46:56.675Z,44.40
2023-04-23T00:48:58.374Z,44.38
2023-04-23T00:51:00.387Z,44.32
2023-04-23T00:53:01.919Z,44.89
2023-04-23T00:55:03.661Z,44.74
2023-04-23T00:57:05.425Z,44.58
2023-04-23T00:59:07.104Z,44.73
2023-04-23T01:01:09.372Z,44.60
2023-04-23T01:03:12.616Z,44.70
2023-04-23T01:05:15.883Z,44.97
2023-04-23T01:07:18.035Z,44.90
2023-04-23T01:09:20.452Z,44.88
2023-04-23T01:11:22.108Z,45.12
2023-04-23T01:13:24.073Z,45.34
2023-04-23T01:15:26.609Z,44.92
2023-04-23T01:17:28.216Z,44.87
2023-04-23T01:19:31.370Z,45.23
2023-04-23T01:21:34.376Z,45.61
2023-04-23T01:23:37.480Z,45.12
2023-04-23T01:25:39.118Z,45.21
2023-04-23T01:27:41.262Z,45.91
2023-04-23T01:29:43.418Z,45.72
2023-04-23T01:31:45.003Z,46.12
2023-04-23T01:33:46.907Z,45.98
2023-04-23T01:35:49.164Z,45.61
2023-04-23T01:37:51.556Z,46.13
2023-04-23T01:39:54.549Z,46.04
2023-04-23T01:41:56.296Z,46.26
2023-04-23T01:43:58.516Z,46.00
2023-04-23T01:46:00.318Z,46.05
2023-04-23T01:48:02.396Z,46.40
2023-04-23T01:50:04.694Z,46.41
2023-04-23T01:52:06.331Z,46.52
2023-04-23T01:54:07.881Z,46.55
2023-04-23T01:56:11.481Z,46.50
2023-04-23T01:58:13.306Z,46.52
2023-04-23T02:00:16.073Z,46.24
2023-04-23T02:02:17.669Z,46.56
2023-04-23T02:04:19.957Z,47.09
2023-04-23T02:06:21.655Z,47.09
2023-04-23T02:08:23.245Z,47.17
2023-04-23T02:10:24.964Z,46.95
2023-04-23T02:12:27.921Z,46.96
2023-04-23T02:14:29.795Z,47.05
2023-04-23T02:16:31.510Z,47.29
2023-04-23T02:18:33.133Z,47.09
2023-04-23T02:20:35.039Z,47.38
2023-04-23T02:22:37.364Z,47.39
2023-04-23T02:24:39.080Z,47.42
2023-04-23T02:26:40.984Z,47.73
2023-04-23T02:28:43.895Z,47.88
2023-04-23T02:30:45.553Z,47.82
2023-04-23T02:32:47.159Z,47.83
2023-04-23T02:34:48.952Z,48.01
2023-04-23T02:36:50.614Z,48.28
2023-04-23T02:38:52.259Z,47.74
2023-04-23T02:40:53.813Z,48.19
2023-04-23T02:42:55.346Z,48.12
2023-04-23T02:44:58.330Z,48.35
2023-04-23T02:47:00.192Z,48.64
2023-04-23T02:49:01.914Z,48.57
2023-04-23T02:51:03.503Z,48.52
2023-04-23T02:53:05.348Z,48.97
2023-04-23T02:55:08.427Z,48.83
2023-04-23T02:57:09.993Z,48.79
2023-04-23T02:59:11.656Z,49.03
2023-04-23T03:01:14.764Z,48.86
2023-04-23T03:03:17.394Z,49.09
2023-04-23T03:05:19.557Z,49.01
2023-04-23T03:07:21.419Z,49.26
2023-04-23T03:09:23.271Z,49.43
2023-04-23T03:11:24.820Z,49.17
2023-04-23T03:13:26.986Z,49.09
2023-04-23T03:15:28.741Z,49.27
2023-04-23T03:17:31.659Z,49.70
2023-04-23T03:19:33.205Z,49.08
2023-04-23T03:21:34.710Z,49.58
2023-04-23T03:23:36.365Z,49.41
2023-04-23T03:25:38.232Z,49.21
2023-04-23T03:27:40.507Z,49.74
2023-04-23T03:29:42.330Z,49.79
2023-04-23T03:31:43.844Z,49.42
2023-04-23T03:33:46.782Z,49.63
2023-04-23T03:35:48.424Z,49.63
2023-04-23T03:37:50.128Z,49.32
2023-04-23T03:39:51.659Z,49.30
2023-04-23T03:41:53.475Z,49.83
2023-04-23T03:43:55.036Z,49.91
2023-04-23T03:45:56.648Z,49.61
2023-04-23T03:47:58.519Z,49.70
2023-04-23T03:50:01.412Z,49.99
2023-04-23T03:52:03.072Z,49.38
2023-04-23T03:54:05.021Z,49.64
2023-04-23T03:56:06.789Z,50.08
2023-04-23T03:58:08.403Z,49.97
2023-04-23T04:00:10.821Z,49.99
2023-04-23T04:02:12.513Z,49.74
2023-04-23T04:04:14.332Z,50.30
2023-04-23T04:06:17.452Z,49.88
2023-04-23T04:08:19.039Z,50.27
2023-04-23T04:10:20.816Z,50.39
2023-04-23T04:12:22.789Z,50.66
2023-04-23T04:14:24.380Z,50.85
2023-04-23T04:16:26.069Z,50.75
2023-04-23T04:18:27.716Z,50.41
2023-04-23T04:20:29.382Z,50.78
2023-04-23T04:22:32.400Z,50.51
2023-04-23T04:24:33.957Z,50.85
2023-04-23T04:26:35.561Z,50.81
2023-04-23T04:28:37.249Z,50.62
2023-04-23T04:30:39.053Z,50.89
2023-04-23T04:32:40.864Z,50.98
2023-04-23T04:34:42.703Z,51.13
2023-04-23T04:36:44.451Z,51.13
2023-04-23T04:38:47.407Z,51.43
2023-04-23T04:40:49.097Z,51.26
2023-04-23T04:42:50.690Z,51.12
2023-04-23T04:44:52.254Z,51.57
2023-04-23T04:46:54.048Z,51.41
2023-04-23T04:48:55.802Z,51.97
2023-04-23T04:50:57.663Z,51.91
2023-04-23T04:52:59.276Z,51.77
2023-04-23T04:55:02.153Z,51.61
2023-04-23T04:57:04.045Z,51.82
2023-04-23T04:59:05.604Z,51.65
2023-04-23T05:01:07.318Z,51.72
2023-04-23T05:03:10.983Z,52.04
2023-04-23T05:05:14.175Z,51.93
2023-04-23T05:07:15.740Z,52.06
2023-04-23T05:09:17.402Z,52.40
2023-04-23T05:11:20.743Z,52.32
2023-04-23T05:13:22.369Z,52.22
2023-04-23T05:15:23.990Z,52.60
2023-04-23T05:17:25.707Z,52.91
2023-04-23T05:19:27.307Z,52.80
2023-04-23T05:21:28.962Z,53.11
2023-04-23T05:23:31.030Z,53.49
2023-04-23T05:25:32.811Z,53.10
2023-04-23T05:27:36.034Z,52.91
2023-04-23T05:29:37.601Z,53.27
2023-04-23T05:31:39.370Z,53.25
2023-04-23T05:33:49.271Z,52.91
2023-04-23T05:35:51.804Z,53.93
2023-04-23T05:37:53.388Z,53.49
2023-04-23T05:39:55.425Z,53.62
2023-04-23T05:41:57.246Z,53.51
2023-04-23T05:44:00.289Z,53.70
2023-04-23T05:46:01.989Z,53.92
2023-04-23T05:48:03.817Z,53.62
2023-04-23T05:50:06.837Z,54.04
2023-04-23T05:52:08.669Z,53.81
2023-04-23T05:54:10.228Z,53.99
2023-04-23T05:56:11.838Z,54.33
2023-04-23T05:58:13.382Z,54.08
2023-04-23T06:00:16.608Z,54.18
2023-04-23T06:02:18.326Z,54.22
2023-04-23T06:04:20.771Z,54.34
2023-04-23T06:06:22.505Z,54.46
2023-04-23T06:08:25.312Z,54.30
2023-04-23T06:10:27.085Z,54.31
2023-04-23T06:12:28.706Z,53.74
2023-04-23T06:14:30.287Z,53.75
2023-04-23T06:16:36.585Z,53.28
2023-04-23T06:18:38.301Z,54.06
2023-04-23T06:20:39.952Z,53.95
2023-04-23T06:22:41.488Z,53.89
2023-04-23T06:24:43.256Z,54.15
2023-04-23T06:26:45.118Z,53.86
2023-04-23T06:28:47.056Z,54.46
2023-04-23T06:30:48.872Z,54.94
2023-04-23T06:32:52.348Z,54.80
2023-04-23T06:35:00.716Z,54.85
2023-04-23T06:37:03.901Z,54.98
2023-04-23T06:39:05.505Z,55.02
2023-04-23T06:41:07.165Z,54.65
2023-04-23T06:43:09.130Z,54.93
2023-04-23T06:45:11.340Z,54.54
2023-04-23T06:47:13.354Z,55.14
2023-04-23T06:49:16.490Z,54.58
2023-04-23T06:51:18.132Z,55.14
2023-04-23T06:53:19.778Z,54.08
2023-04-23T06:55:21.447Z,54.27
2023-04-23T06:57:23.076Z,53.85
2023-04-23T06:59:24.658Z,54.09
2023-04-23T07:01:26.543Z,53.96
2023-04-23T07:03:28.491Z,54.35
2023-04-23T07:05:34.253Z,53.87
2023-04-23T07:07:36.217Z,54.62
2023-04-23T07:09:37.959Z,54.82
2023-04-23T07:11:39.633Z,54.34
2023-04-23T07:13:42.080Z,53.98
2023-04-23T07:15:43.695Z,54.05
2023-04-23T07:17:45.390Z,54.33
2023-04-23T07:19:49.580Z,54.00
2023-04-23T07:21:52.725Z,54.05
2023-04-23T07:23:55.665Z,54.27
2023-04-23T07:25:57.239Z,54.21
2023-04-23T07:27:58.921Z,54.27
2023-04-23T07:30:00.499Z,54.50
2023-04-23T07:32:02.175Z,55.33
2023-04-23T07:34:03.691Z,55.72
2023-04-23T07:36:05.321Z,55.32
2023-04-23T07:38:08.252Z,55.18
2023-04-23T07:40:10.485Z,56.93
2023-04-23T07:42:12.231Z,56.51
2023-04-23T07:44:13.766Z,57.00
2023-04-23T07:46:15.569Z,57.47
2023-04-23T07:48:17.195Z,58.39
2023-04-23T07:50:18.970Z,58.85
2023-04-23T07:52:20.799Z,58.12
2023-04-23T07:54:25.219Z,58.09
2023-04-23T07:56:27.369Z,58.67
2023-04-23T07:58:29.034Z,59.01
2023-04-23T08:00:30.750Z,58.76
2023-04-23T08:02:32.369Z,59.78
2023-04-23T08:04:34.217Z,60.26
2023-04-23T08:06:35.972Z,59.65
2023-04-23T08:08:37.791Z,59.47
2023-04-23T08:10:40.984Z,60.51
2023-04-23T08:12:42.544Z,59.95
2023-04-23T08:14:44.508Z,59.51
2023-04-23T08:16:46.146Z,60.20
2023-04-23T08:19:01.755Z,59.93
2023-04-23T08:21:06.426Z,61.18
2023-04-23T08:23:08.012Z,61.09
2023-04-23T08:25:10.452Z,61.94
2023-04-23T08:27:13.376Z,62.02
2023-04-23T08:29:14.938Z,62.17
2023-04-23T08:31:25.767Z,62.94
2023-04-23T08:33:28.397Z,62.88
2023-04-23T08:35:30.418Z,63.38
2023-04-23T08:37:32.065Z,64.05
2023-04-23T08:39:35.537Z,64.02
2023-04-23T08:41:40.327Z,63.94
2023-04-23T08:43:50.722Z,63.63
2023-04-23T08:45:53.920Z,65.10
2023-04-23T08:48:01.848Z,65.06
2023-04-23T08:50:05.427Z,66.70
2023-04-23T08:52:15.960Z,64.05
2023-04-23T08:54:23.695Z,65.97
2023-04-23T08:56:26.729Z,67.35
2023-04-23T08:58:29.147Z,67.51
2023-04-23T09:00:33.285Z,67.71
2023-04-23T09:02:35.971Z,68.20
2023-04-23T09:04:38.486Z,67.50
2023-04-23T09:06:40.126Z,67.87
2023-04-23T09:08:42.320Z,68.09
2023-04-23T09:10:44.552Z,68.71
2023-04-23T09:12:46.388Z,69.03
2023-04-23T09:14:50.019Z,69.13
2023-04-23T09:16:53.724Z,68.78
2023-04-23T09:18:55.469Z,69.37
2023-04-23T09:20:57.450Z,69.53
2023-04-23T09:22:59.108Z,69.75
2023-04-23T09:25:01.719Z,69.61
2023-04-23T09:27:03.681Z,69.85
2023-04-23T09:29:13.494Z,68.25
2023-04-23T09:31:15.623Z,67.87
2023-04-23T09:33:18.583Z,68.38
2023-04-23T09:35:20.215Z,68.41
2023-04-23T09:37:25.809Z,67.32
2023-04-23T09:39:27.443Z,68.33
2023-04-23T09:41:29.172Z,68.79
2023-04-23T09:43:30.751Z,68.50
2023-04-23T09:45:32.583Z,68.86
2023-04-23T09:47:35.012Z,68.54
2023-04-23T09:49:46.831Z,66.81
2023-04-23T09:51:49.560Z,68.67
2023-04-23T09:53:51.185Z,68.76
2023-04-23T09:55:53.480Z,67.97
2023-04-23T09:57:54.985Z,68.41
2023-04-23T10:00:03.706Z,68.54
2023-04-23T10:02:12.925Z,68.59
2023-04-23T10:04:18.383Z,68.53
2023-04-23T10:08:32.678Z,69.78
2023-04-23T10:10:43.097Z,70.07
2023-04-23T10:12:55.178Z,70.15
2023-04-23T10:14:57.854Z,70.40
2023-04-23T10:17:01.210Z,70.28
2023-04-23T10:19:05.262Z,70.08
2023-04-23T10:21:07.517Z,70.12
2023-04-23T10:23:12.963Z,70.05
2023-04-23T10:25:15.582Z,69.55
2023-04-23T10:27:30.665Z,70.00
2023-04-23T10:29:35.073Z,69.59
2023-04-23T10:31:37.907Z,69.12
2023-04-23T10:33:53.550Z,68.43
2023-04-23T10:35:59.334Z,69.32
2023-04-23T10:38:01.818Z,69.21
2023-04-23T10:40:08.956Z,68.34
2023-04-23T10:42:11.647Z,69.45
2023-04-23T10:44:16.064Z,69.33
2023-04-23T10:46:30.772Z,67.61
2023-04-23T10:48:51.857Z,67.81
2023-04-23T10:51:06.980Z,69.46
2023-04-23T10:53:23.605Z,67.85
2023-04-23T10:55:28.562Z,68.37
2023-04-23T10:57:30.186Z,68.57
2023-04-23T10:59:32.872Z,67.66
2023-04-23T11:01:34.591Z,67.77
2023-04-23T11:03:41.582Z,68.01
2023-04-23T11:05:44.975Z,67.59
2023-04-23T11:08:11.044Z,66.01
2023-04-23T11:10:16.707Z,67.41
2023-04-23T11:12:32.721Z,67.06
2023-04-23T11:14:42.003Z,67.01
2023-04-23T11:16:43.756Z,67.20
2023-04-23T11:18:55.734Z,65.34
2023-04-23T11:20:57.284Z,67.98
2023-04-23T11:22:58.839Z,67.49
2023-04-23T11:25:02.085Z,67.19
2023-04-23T11:27:06.558Z,66.33
2023-04-23T11:29:12.156Z,66.06
2023-04-23T11:31:15.131Z,66.06
2023-04-23T11:33:16.714Z,66.93
2023-04-23T11:35:20.214Z,67.55
2023-04-23T11:37:21.833Z,67.74
2023-04-23T11:39:23.771Z,66.91
2023-04-23T11:41:25.321Z,68.05
2023-04-23T11:43:26.941Z,67.98
2023-04-23T11:45:30.478Z,67.74
2023-04-23T11:47:32.566Z,67.72
2023-04-23T11:49:34.345Z,67.53
2023-04-23T11:51:42.002Z,66.88
2023-04-23T11:53:46.213Z,68.20
2023-04-23T11:55:49.236Z,67.53
2023-04-23T11:57:52.533Z,68.26
2023-04-23T11:59:54.218Z,67.78
2023-04-23T12:01:59.450Z,67.77
2023-04-23T12:04:09.017Z,68.01
2023-04-23T12:06:10.700Z,67.68
2023-04-23T12:08:14.611Z,68.40
2023-04-23T12:10:18.008Z,68.12
2023-04-23T12:12:20.763Z,66.80
2023-04-23T12:14:27.160Z,66.32
2023-04-23T12:16:36.508Z,66.76
2023-04-23T12:18:41.967Z,66.84
2023-04-23T12:20:43.886Z,67.17
2023-04-23T12:22:45.515Z,68.67
2023-04-23T12:24:48.234Z,67.53
2023-04-23T12:26:52.680Z,68.20
2023-04-23T12:28:56.091Z,67.40
2023-04-23T12:31:00.226Z,67.43
2023-04-23T12:33:02.260Z,66.47
2023-04-23T12:35:06.030Z,65.02
2023-04-23T12:37:07.666Z,67.38
2023-04-23T12:39:27.757Z,65.25
2023-04-23T12:41:30.741Z,65.57
2023-04-23T12:43:33.369Z,66.22
2023-04-23T12:45:37.713Z,65.74
2023-04-23T12:47:39.323Z,63.99
2023-04-23T12:49:42.359Z,65.35
2023-04-23T12:51:45.778Z,65.32
2023-04-23T12:53:47.330Z,65.48
2023-04-23T12:55:48.963Z,65.01
2023-04-23T12:57:50.511Z,64.96
2023-04-23T12:59:51.999Z,65.13
2023-04-23T13:01:54.302Z,65.17
2023-04-23T13:03:56.130Z,64.33
2023-04-23T13:05:57.819Z,65.83
2023-04-23T13:08:00.806Z,64.18
2023-04-23T13:10:02.405Z,62.87
2023-04-23T13:12:04.275Z,64.42
2023-04-23T13:14:06.273Z,62.35
2023-04-23T13:16:08.035Z,61.30
2023-04-23T13:18:09.578Z,62.19
2023-04-23T13:20:11.645Z,61.52
2023-04-23T13:22:13.276Z,61.31
2023-04-23T13:24:16.642Z,61.59
2023-04-23T13:26:18.523Z,61.07
2023-04-23T13:28:20.238Z,61.91
2023-04-23T13:30:21.894Z,61.96
2023-04-23T13:32:23.754Z,61.17
2023-04-23T13:34:25.396Z,60.45
2023-04-23T13:36:26.984Z,60.20
2023-04-23T13:38:29.662Z,60.80
2023-04-23T13:40:32.763Z,59.37
2023-04-23T13:42:34.377Z,59.80
2023-04-23T13:44:35.958Z,61.20
2023-04-23T13:46:37.594Z,58.57
2023-04-23T13:48:39.464Z,60.18
2023-04-23T13:50:41.239Z,58.71
2023-04-23T13:52:42.863Z,60.33
2023-04-23T13:54:44.456Z,58.71
2023-04-23T13:56:47.394Z,58.71
2023-04-23T13:58:50.102Z,57.14
2023-04-23T14:00:52.097Z,56.04
2023-04-23T14:02:53.818Z,56.65
2023-04-23T14:04:55.605Z,54.51
2023-04-23T14:06:57.558Z,55.74
2023-04-23T14:08:59.112Z,56.08
2023-04-23T14:11:00.773Z,56.53
2023-04-23T14:13:04.039Z,56.31
2023-04-23T14:15:07.027Z,56.56
2023-04-23T14:17:08.625Z,57.58
2023-04-23T14:19:10.239Z,55.76
2023-04-23T14:21:13.223Z,53.83
2023-04-23T14:23:44.593Z,56.25
2023-04-23T14:25:46.656Z,55.09
2023-04-23T14:27:51.083Z,53.23
2023-04-23T14:29:58.603Z,53.59
2023-04-23T14:32:00.490Z,52.42
2023-04-23T14:34:02.062Z,51.65
2023-04-23T14:36:04.849Z,52.54
2023-04-23T14:38:06.519Z,52.89
2023-04-23T14:40:09.443Z,52.90
2023-04-23T14:42:11.540Z,53.67
2023-04-23T14:44:13.072Z,51.89
2023-04-23T14:46:16.297Z,51.93
2023-04-23T14:48:17.874Z,50.78
2023-04-23T14:50:19.500Z,50.29
2023-04-23T14:52:21.100Z,48.71
2023-04-23T14:54:23.136Z,49.63
2023-04-23T14:56:24.847Z,49.45
2023-04-23T14:58:26.490Z,49.24
2023-04-23T15:00:28.316Z,49.60
2023-04-23T15:02:31.490Z,49.24
2023-04-23T15:04:35.351Z,49.90
2023-04-23T15:06:37.375Z,48.92
2023-04-23T15:08:38.947Z,50.04
2023-04-23T15:10:40.611Z,50.38
2023-04-23T15:12:48.559Z,49.18
2023-04-23T15:14:50.356Z,48.84
2023-04-23T15:16:52.426Z,48.95
2023-04-23T15:18:55.608Z,49.32
2023-04-23T15:20:57.200Z,49.75
2023-04-23T15:23:00.889Z,49.44
2023-04-23T15:25:02.518Z,49.57
2023-04-23T15:27:04.361Z,48.25
2023-04-23T15:29:06.202Z,47.88
2023-04-23T15:31:08.167Z,47.79
2023-04-23T15:33:09.740Z,48.21
2023-04-23T15:35:12.734Z,47.05
2023-04-23T15:37:14.311Z,46.86
2023-04-23T15:39:15.914Z,47.44
2023-04-23T15:41:17.777Z,47.32
2023-04-23T15:43:19.285Z,47.85
2023-04-23T15:45:21.435Z,47.99
2023-04-23T15:47:23.407Z,48.06
2023-04-23T15:49:25.003Z,48.53
2023-04-23T15:51:27.973Z,47.46
2023-04-23T15:53:29.625Z,47.69
2023-04-23T15:55:31.232Z,45.92
2023-04-23T15:57:32.921Z,45.18
2023-04-23T15:59:34.506Z,44.93
2023-04-23T16:01:36.429Z,44.47
2023-04-23T16:03:38.569Z,44.07
2023-04-23T16:05:40.667Z,44.10
2023-04-23T16:07:43.599Z,44.58
2023-04-23T16:09:45.381Z,44.21
2023-04-23T16:11:47.158Z,45.29
2023-04-23T16:13:48.788Z,45.45
2023-04-23T16:15:50.555Z,45.62
2023-04-23T16:17:52.447Z,44.99
2023-04-23T16:19:54.257Z,46.10
2023-04-23T16:21:55.776Z,45.76
2023-04-23T16:23:58.788Z,44.97
2023-04-23T16:26:00.441Z,43.80
2023-04-23T16:28:02.244Z,44.58
2023-04-23T16:30:04.585Z,44.71
2023-04-23T16:32:06.206Z,44.60
2023-04-23T16:34:08.174Z,46.26
2023-04-23T16:36:09.838Z,45.70
2023-04-23T16:38:11.512Z,45.88
2023-04-23T16:40:14.456Z,45.26
2023-04-23T16:42:16.108Z,44.79
2023-04-23T16:44:17.745Z,44.76
2023-04-23T16:46:19.286Z,45.42
2023-04-23T16:48:20.848Z,45.88
2023-04-23T16:50:22.434Z,45.42
2023-04-23T16:52:24.181Z,46.77
2023-04-23T16:54:25.755Z,46.72
2023-04-23T16:56:28.886Z,47.69
2023-04-23T16:58:31.084Z,48.54
2023-04-23T17:00:32.651Z,48.66
2023-04-23T17:02:34.421Z,48.48
2023-04-23T17:04:37.180Z,49.10
2023-04-23T17:06:38.944Z,48.78
2023-04-23T17:08:40.583Z,49.42
2023-04-23T17:10:42.206Z,49.33
2023-04-23T17:12:45.125Z,49.88
2023-04-23T17:14:46.671Z,49.87
2023-04-23T17:16:48.360Z,49.45
2023-04-23T17:18:50.158Z,49.50
2023-04-23T17:20:51.798Z,50.08
2023-04-23T17:22:53.367Z,49.30
2023-04-23T17:24:55.101Z,48.64
2023-04-23T17:26:57.027Z,49.17
2023-04-23T17:29:00.433Z,49.31
2023-04-23T17:31:02.620Z,49.75
2023-04-23T17:33:04.484Z,50.14
2023-04-23T17:35:10.496Z,50.28
2023-04-23T17:37:15.356Z,50.81
2023-04-23T17:39:18.346Z,50.77
2023-04-23T17:41:20.143Z,51.34
2023-04-23T17:43:22.028Z,51.05
2023-04-23T17:45:25.063Z,51.67
2023-04-23T17:47:26.601Z,51.57
2023-04-23T17:49:28.310Z,51.72
2023-04-23T17:51:29.948Z,52.05
2023-04-23T17:53:31.531Z,51.55
2023-04-23T17:55:33.217Z,52.09
2023-04-23T17:57:34.905Z,51.99
2023-04-23T17:59:36.428Z,51.83
2023-04-23T18:01:39.595Z,52.19
2023-04-23T18:03:41.423Z,52.42
2023-04-23T18:05:43.165Z,52.86
2023-04-23T18:07:44.849Z,52.70
2023-04-23T18:09:46.623Z,52.48
2023-04-23T18:11:48.766Z,53.10
2023-04-23T18:13:50.491Z,53.56
2023-04-23T18:15:52.237Z,53.11
2023-04-23T18:17:55.133Z,53.78
2023-04-23T18:19:56.775Z,53.78
2023-04-23T18:21:58.449Z,54.17
2023-04-23T18:24:00.221Z,54.07
2023-04-23T18:26:01.844Z,54.28
2023-04-23T18:28:03.387Z,54.76
2023-04-23T18:30:06.451Z,54.97
2023-04-23T18:32:08.442Z,55.44
2023-04-23T18:34:18.089Z,54.85
2023-04-23T18:36:24.245Z,56.18
2023-04-23T18:38:30.892Z,55.98
2023-04-23T18:40:32.761Z,56.56
2023-04-23T18:42:34.610Z,57.54
2023-04-23T18:44:36.197Z,57.01
2023-04-23T18:46:37.820Z,57.08
2023-04-23T18:48:50.745Z,56.28
2023-04-23T18:50:56.513Z,56.86
2023-04-23T18:52:58.101Z,57.50
2023-04-23T18:54:59.650Z,57.28
2023-04-23T18:57:01.265Z,57.46
2023-04-23T18:59:02.949Z,57.65
2023-04-23T19:01:04.613Z,57.51
2023-04-23T19:03:15.412Z,57.73
2023-04-23T19:05:28.873Z,57.34
2023-04-23T19:07:35.249Z,57.26
2023-04-23T19:09:36.786Z,58.52
2023-04-23T19:11:38.675Z,58.69
2023-04-23T19:13:40.254Z,58.43
2023-04-23T19:15:41.898Z,59.23
2023-04-23T19:17:43.565Z,59.19
2023-04-23T19:19:45.266Z,59.77
2023-04-23T19:21:46.894Z,59.77
2023-04-23T19:23:50.214Z,59.77
2023-04-23T19:25:51.855Z,60.02
2023-04-23T19:27:53.466Z,59.87
2023-04-23T19:29:55.065Z,60.29
2023-04-23T19:31:56.658Z,60.82
2023-04-23T19:33:58.437Z,61.07
2023-04-23T19:36:00.025Z,61.19
2023-04-23T19:38:01.668Z,60.91
2023-04-23T19:40:05.569Z,61.49
2023-04-23T19:42:07.111Z,61.19
2023-04-23T19:44:08.691Z,61.43
2023-04-23T19:46:10.283Z,62.14
2023-04-23T19:48:14.739Z,61.62
2023-04-23T19:50:16.233Z,62.40
2023-04-23T19:52:22.174Z,61.74
2023-04-23T19:54:24.736Z,62.60
2023-04-23T19:56:27.834Z,62.88
2023-04-23T19:58:29.501Z,62.40
2023-04-23T20:00:31.103Z,62.69
2023-04-23T20:02:32.797Z,62.75
2023-04-23T20:04:34.615Z,62.58
2023-04-23T20:06:36.208Z,62.90
2023-04-23T20:08:37.746Z,63.08
2023-04-23T20:10:39.429Z,63.04
2023-04-23T20:12:42.484Z,63.18
2023-04-23T20:14:44.116Z,63.28
2023-04-23T20:16:45.986Z,63.19
2023-04-23T20:18:47.761Z,63.70
2023-04-23T20:20:49.436Z,63.68
2023-04-23T20:22:50.992Z,63.89
2023-04-23T20:24:52.686Z,64.07
2023-04-23T20:26:54.304Z,64.00
2023-04-23T20:28:57.468Z,64.41
2023-04-23T20:30:59.055Z,64.76
2023-04-23T20:33:00.904Z,64.75
2023-04-23T20:35:02.565Z,64.88
2023-04-23T20:37:04.397Z,65.25
2023-04-23T20:39:06.062Z,65.04
2023-04-23T20:41:10.034Z,65.68
2023-04-23T20:43:12.345Z,65.30
2023-04-23T20:45:15.483Z,65.49
2023-04-23T20:47:17.021Z,65.85
2023-04-23T20:49:19.023Z,65.84
2023-04-23T20:51:20.606Z,65.64
2023-04-23T20:53:22.628Z,66.15
2023-04-23T20:55:24.493Z,66.11
2023-04-23T20:57:26.052Z,66.19
2023-04-23T20:59:27.714Z,66.53
2023-04-23T21:01:30.829Z,66.80
2023-04-23T21:03:32.598Z,67.06
2023-04-23T21:05:34.265Z,66.69
2023-04-23T21:07:35.848Z,67.05
2023-04-23T21:09:37.815Z,66.96
2023-04-23T21:11:39.647Z,67.43
2023-04-23T21:13:41.229Z,67.77
2023-04-23T21:15:43.009Z,68.21
2023-04-23T21:17:46.359Z,67.67
2023-04-23T21:19:48.031Z,68.12
2023-04-23T21:21:49.738Z,68.00
2023-04-23T21:23:51.325Z,67.93
2023-04-23T21:25:52.956Z,67.97
2023-04-23T21:27:55.522Z,68.18
2023-04-23T21:30:00.272Z,68.21
2023-04-23T21:32:02.681Z,68.65
2023-04-23T21:34:06.013Z,68.32
2023-04-23T21:36:08.054Z,68.79
2023-04-23T21:38:10.459Z,68.33
2023-04-23T21:40:12.340Z,68.50
2023-04-23T21:42:13.966Z,68.87
2023-04-23T21:44:17.104Z,68.65
2023-04-23T21:46:18.818Z,68.92
2023-04-23T21:48:20.530Z,69.20
2023-04-23T21:50:23.542Z,69.17
2023-04-23T21:52:25.054Z,68.59
2023-04-23T21:54:26.711Z,69.31
2023-04-23T21:56:28.516Z,69.01
2023-04-23T21:58:30.152Z,68.89
2023-04-23T22:00:31.740Z,69.26
2023-04-23T22:02:33.429Z,69.61
2023-04-23T22:04:35.254Z,69.38
2023-04-23T22:06:38.594Z,69.76
2023-04-23T22:08:40.346Z,69.24
2023-04-23T22:10:41.962Z,69.29
2023-04-23T22:12:44.604Z,69.78
2023-04-23T22:14:46.234Z,69.50
2023-04-23T22:16:47.866Z,70.19
2023-04-23T22:18:49.433Z,70.12
2023-04-23T22:20:51.246Z,70.17
2023-04-23T22:22:54.251Z,69.82
2023-04-23T22:24:55.789Z,69.95
2023-04-23T22:26:57.381Z,69.75
2023-04-23T22:28:58.939Z,70.29
2023-04-23T22:31:00.728Z,70.24
2023-04-23T22:33:02.593Z,70.83
2023-04-23T22:35:05.309Z,69.94
2023-04-23T22:37:06.911Z,70.52
2023-04-23T22:39:09.882Z,70.12
2023-04-23T22:41:11.459Z,70.26
2023-04-23T22:43:13.093Z,70.05
2023-04-23T22:45:14.719Z,70.57
2023-04-23T22:47:16.289Z,70.67
2023-04-23T22:49:17.953Z,70.32
2023-04-23T22:51:19.496Z,70.16
2023-04-23T22:53:21.445Z,70.94
2023-04-23T22:55:24.406Z,70.33
2023-04-23T22:57:26.644Z,70.95
2023-04-23T22:59:28.256Z,70.94
2023-04-23T23:01:29.870Z,70.45
2023-04-23T23:03:31.666Z,70.82
2023-04-23T23:05:33.297Z,70.37
2023-04-23T23:07:34.951Z,70.81
2023-04-23T23:09:36.523Z,70.23
2023-04-23T23:11:39.482Z,70.43
2023-04-23T23:13:41.127Z,69.66
2023-04-23T23:15:42.953Z,69.81
2023-04-23T23:17:44.707Z,70.32
2023-04-23T23:19:46.343Z,70.42
2023-04-23T23:21:48.428Z,70.79
2023-04-23T23:23:50.034Z,71.15
2023-04-23T23:25:51.717Z,70.88
2023-04-23T23:27:54.797Z,71.44
2023-04-23T23:29:56.340Z,71.74
2023-04-23T23:31:57.981Z,72.75
2023-04-23T23:33:59.550Z,71.95
2023-04-23T23:36:01.154Z,71.76
2023-04-23T23:38:02.702Z,73.16
2023-04-23T23:40:05.376Z,72.85
2023-04-23T23:42:07.245Z,72.43
2023-04-23T23:44:10.222Z,72.90
2023-04-23T23:46:11.956Z,73.09
2023-04-23T23:48:13.718Z,73.84
2023-04-23T23:50:15.531Z,73.00
2023-04-23T23:52:17.149Z,74.21
2023-04-23T23:54:18.703Z,73.26
2023-04-23T23:56:20.249Z,74.17
2023-04-23T23:58:21.880Z,74.35
